createdAt,value
2023-03-05T00:00:37.439Z,29.80
2023-03-05T00:02:52.899Z,27.70
2023-03-05T00:05:04.779Z,30.60
2023-03-05T00:07:16.185Z,29.80
2023-03-05T00:09:27.782Z,31.70
2023-03-05T00:11:39.928Z,31.80
2023-03-05T00:13:52.442Z,35.50
2023-03-05T00:16:11.465Z,39.70
2023-03-05T00:18:23.686Z,36.80
2023-03-05T00:20:35.475Z,39.30
2023-03-05T00:22:47.675Z,41.00
2023-03-05T00:25:00.081Z,42.20
2023-03-05T00:27:11.976Z,38.10
2023-03-05T00:29:23.760Z,37.70
2023-03-05T00:31:36.731Z,38.90
2023-03-05T00:33:57.302Z,34.80
2023-03-05T00:36:09.906Z,38.90
2023-03-05T00:38:22.407Z,39.60
2023-03-05T00:40:42.260Z,45.60
2023-03-05T00:42:53.857Z,38.20
2023-03-05T00:45:08.059Z,35.00
2023-03-05T00:47:20.208Z,34.60
2023-03-05T00:49:32.307Z,33.70
2023-03-05T00:51:43.987Z,28.50
2023-03-05T00:53:56.809Z,32.60
2023-03-05T00:56:08.795Z,30.50
2023-03-05T00:58:20.686Z,32.20
2023-03-05T01:00:32.383Z,28.80
2023-03-05T01:02:44.609Z,33.40
2023-03-05T01:04:56.991Z,29.10
2023-03-05T01:07:09.305Z,27.60
2023-03-05T01:09:22.183Z,43.90
2023-03-05T01:11:34.322Z,32.90
2023-03-05T01:13:46.167Z,30.80
2023-03-05T01:15:57.792Z,23.70
2023-03-05T01:18:10.255Z,28.10
2023-03-05T01:20:23.434Z,25.00
2023-03-05T01:22:35.282Z,27.40
2023-03-05T01:24:47.465Z,26.30
2023-03-05T01:26:59.766Z,28.70
2023-03-05T01:29:11.773Z,29.80
2023-03-05T01:31:23.917Z,23.30
2023-03-05T01:33:36.161Z,28.50
2023-03-05T01:35:49.442Z,26.10
2023-03-05T01:38:01.381Z,27.20
2023-03-05T01:40:16.852Z,25.90
2023-03-05T01:42:29.154Z,25.30
2023-03-05T01:45:01.691Z,28.30
2023-03-05T01:47:13.522Z,23.90
2023-03-05T01:49:38.787Z,25.80
2023-03-05T01:52:07.113Z,30.50
2023-03-05T01:54:22.853Z,28.10
2023-03-05T01:56:35.192Z,27.00
2023-03-05T01:58:47.289Z,24.60
2023-03-05T02:00:58.915Z,23.80
2023-03-05T02:03:12.424Z,28.00
2023-03-05T02:05:29.124Z,29.30
2023-03-05T02:07:43.150Z,26.70
2023-03-05T02:09:55.144Z,26.50
2023-03-05T02:12:09.087Z,22.80
2023-03-05T02:14:24.458Z,25.20
2023-03-05T02:16:38.549Z,22.50
2023-03-05T02:18:50.707Z,30.70
2023-03-05T02:21:04.030Z,28.00
2023-03-05T02:23:15.823Z,27.30
2023-03-05T02:25:29.656Z,30.10
2023-03-05T02:27:44.568Z,34.10
2023-03-05T02:29:56.513Z,35.60
2023-03-05T02:32:09.742Z,37.40
2023-03-05T02:34:23.269Z,30.70
2023-03-05T02:36:35.571Z,31.10
2023-03-05T02:38:48.286Z,27.40
2023-03-05T02:41:00.997Z,27.40
2023-03-05T02:43:13.319Z,24.60
2023-03-05T02:45:25.186Z,29.00
2023-03-05T02:47:37.182Z,25.60
2023-03-05T02:49:49.281Z,24.80
2023-03-05T02:52:02.511Z,28.70
2023-03-05T02:54:14.602Z,28.60
2023-03-05T02:56:26.594Z,25.20
2023-03-05T02:58:39.320Z,38.40
2023-03-05T03:00:51.534Z,22.00
2023-03-05T03:03:03.333Z,22.10
2023-03-05T03:05:14.985Z,22.20
2023-03-05T03:07:27.081Z,21.80
2023-03-05T03:09:39.892Z,22.80
2023-03-05T03:11:51.584Z,22.70
2023-03-05T03:14:03.474Z,21.00
2023-03-05T03:16:15.880Z,22.20
2023-03-05T03:18:27.875Z,19.90
2023-03-05T03:20:39.766Z,22.20
2023-03-05T03:22:52.181Z,21.40
2023-03-05T03:25:05.678Z,21.20
2023-03-05T03:27:17.493Z,25.90
2023-03-05T03:29:29.958Z,21.40
2023-03-05T03:31:41.995Z,21.30
2023-03-05T03:33:54.399Z,21.40
2023-03-05T03:36:07.014Z,22.70
2023-03-05T03:38:18.698Z,23.20
2023-03-05T03:40:31.124Z,21.00
2023-03-05T03:42:43.018Z,23.10
2023-03-05T03:44:55.202Z,21.80
2023-03-05T03:47:07.091Z,23.10
2023-03-05T03:49:21.847Z,23.10
2023-03-05T03:51:34.046Z,19.70
2023-03-05T03:53:45.733Z,18.80
2023-03-05T03:55:59.570Z,19.60
2023-03-05T03:58:11.363Z,23.40
2023-03-05T04:00:23.058Z,17.40
2023-03-05T04:02:35.308Z,18.80
2023-03-05T04:04:47.345Z,19.90
2023-03-05T04:06:59.652Z,21.90
2023-03-05T04:09:11.438Z,19.30
2023-03-05T04:11:23.433Z,18.70
2023-03-05T04:13:35.234Z,17.70
2023-03-05T04:15:46.935Z,18.10
2023-03-05T04:17:58.803Z,20.70
2023-03-05T04:20:11.619Z,20.10
2023-03-05T04:22:23.523Z,18.40
2023-03-05T04:24:35.298Z,21.90
2023-03-05T04:26:47.404Z,18.50
2023-03-05T04:28:59.289Z,20.40
2023-03-05T04:31:11.177Z,19.70
2023-03-05T04:33:23.683Z,19.80
2023-03-05T04:35:35.502Z,22.90
2023-03-05T04:37:47.524Z,21.00
2023-03-05T04:39:59.766Z,22.70
2023-03-05T04:42:11.252Z,16.70
2023-03-05T04:44:25.341Z,21.10
2023-03-05T04:46:37.560Z,18.50
2023-03-05T04:48:49.690Z,18.10
2023-03-05T04:51:01.279Z,19.10
2023-03-05T04:53:12.985Z,19.40
2023-03-05T04:55:25.057Z,18.40
2023-03-05T04:57:38.177Z,18.60
2023-03-05T04:59:50.071Z,21.00
2023-03-05T05:02:02.243Z,18.60
2023-03-05T05:04:14.471Z,33.60
2023-03-05T05:06:26.262Z,45.40
2023-03-05T05:08:38.461Z,36.50
2023-03-05T05:10:58.490Z,23.20
2023-03-05T05:13:10.049Z,32.20
2023-03-05T05:15:21.697Z,41.60
2023-03-05T05:17:34.346Z,46.60
2023-03-05T05:19:46.115Z,55.70
2023-03-05T05:21:57.804Z,58.90
2023-03-05T05:24:10.412Z,55.10
2023-03-05T05:26:22.311Z,41.90
2023-03-05T05:28:36.140Z,49.50
2023-03-05T05:30:48.238Z,40.30
2023-03-05T05:33:00.128Z,28.20
2023-03-05T05:35:12.435Z,25.70
2023-03-05T05:37:26.089Z,24.30
2023-03-05T05:39:38.474Z,23.90
2023-03-05T05:41:51.502Z,23.90
2023-03-05T05:44:03.395Z,24.50
2023-03-05T05:46:18.171Z,22.60
2023-03-05T05:48:31.781Z,27.70
2023-03-05T05:50:43.980Z,24.70
2023-03-05T05:52:55.874Z,23.00
2023-03-05T05:55:08.606Z,19.90
2023-03-05T05:57:20.680Z,22.00
2023-03-05T05:59:32.987Z,23.00
2023-03-05T06:01:45.083Z,29.00
2023-03-05T06:03:57.486Z,25.20
2023-03-05T06:06:11.809Z,21.00
2023-03-05T06:08:23.522Z,18.90
2023-03-05T06:10:35.416Z,23.10
2023-03-05T06:12:46.897Z,17.10
2023-03-05T06:14:58.890Z,20.40
2023-03-05T06:17:12.878Z,22.00
2023-03-05T06:19:27.185Z,20.30
2023-03-05T06:21:39.589Z,18.80
2023-03-05T06:23:51.796Z,17.70
2023-03-05T06:26:06.649Z,21.00
2023-03-05T06:28:18.948Z,81.30
2023-03-05T06:30:30.804Z,76.80
2023-03-05T06:32:42.834Z,65.40
2023-03-05T06:34:54.728Z,89.00
2023-03-05T06:37:06.420Z,81.20
2023-03-05T06:39:18.519Z,64.40
2023-03-05T06:41:31.330Z,72.30
2023-03-05T06:43:44.958Z,78.30
2023-03-05T06:46:14.490Z,102.60
2023-03-05T06:48:26.460Z,108.70
2023-03-05T06:50:38.566Z,58.10
2023-03-05T06:52:50.854Z,31.00
2023-03-05T06:55:02.546Z,32.50
2023-03-05T06:57:14.438Z,20.90
2023-03-05T06:59:26.335Z,20.00
2023-03-05T07:01:38.310Z,35.90
2023-03-05T07:03:52.063Z,21.80
2023-03-05T07:06:13.864Z,21.10
2023-03-05T07:08:25.982Z,25.20
2023-03-05T07:10:42.904Z,17.30
2023-03-05T07:12:54.591Z,17.40
2023-03-05T07:15:07.573Z,14.00
2023-03-05T07:17:19.492Z,14.10
2023-03-05T07:19:31.793Z,12.70
2023-03-05T07:21:44.101Z,14.40
2023-03-05T07:23:58.072Z,14.60
2023-03-05T07:26:11.192Z,15.40
2023-03-05T07:28:23.561Z,10.80
2023-03-05T07:30:35.299Z,13.70
2023-03-05T07:32:47.243Z,10.70
2023-03-05T07:34:59.339Z,11.90
2023-03-05T07:37:11.129Z,15.70
2023-03-05T07:39:23.431Z,16.00
2023-03-05T07:41:35.123Z,19.20
2023-03-05T07:43:53.071Z,92.80
2023-03-05T07:46:07.439Z,225.70
2023-03-05T07:48:22.577Z,213.70
2023-03-05T07:50:34.565Z,148.50
2023-03-05T07:52:46.048Z,42.30
2023-03-05T07:54:58.148Z,99.00
2023-03-05T07:57:13.369Z,125.30
2023-03-05T07:59:25.004Z,94.60
2023-03-05T08:01:37.616Z,66.20
2023-03-05T08:03:49.845Z,42.60
2023-03-05T08:06:06.109Z,22.00
2023-03-05T08:08:18.721Z,45.00
2023-03-05T08:10:30.301Z,44.10
2023-03-05T08:12:42.203Z,38.10
2023-03-05T08:14:54.191Z,43.70
2023-03-05T08:17:06.904Z,43.50
2023-03-05T08:19:20.228Z,44.60
2023-03-05T08:21:36.545Z,35.40
2023-03-05T08:23:48.999Z,46.10
2023-03-05T08:26:02.660Z,40.90
2023-03-05T08:28:14.288Z,39.50
2023-03-05T08:30:27.694Z,43.70
2023-03-05T08:32:39.919Z,44.60
2023-03-05T08:34:57.970Z,32.80
2023-03-05T08:37:10.212Z,31.60
2023-03-05T08:39:22.621Z,103.50
2023-03-05T08:41:34.824Z,256.80
2023-03-05T08:43:46.577Z,565.10
2023-03-05T08:46:00.759Z,142.30
2023-03-05T08:48:12.542Z,96.30
2023-03-05T08:50:24.728Z,177.40
2023-03-05T08:52:36.630Z,56.20
2023-03-05T08:54:48.321Z,38.00
2023-03-05T08:57:00.315Z,35.30
2023-03-05T08:59:13.671Z,32.20
2023-03-05T09:01:25.644Z,26.80
2023-03-05T09:03:38.652Z,29.50
2023-03-05T09:05:51.671Z,21.60
2023-03-05T09:08:03.771Z,17.70
2023-03-05T09:10:18.430Z,17.40
2023-03-05T09:12:30.124Z,15.40
2023-03-05T09:14:42.520Z,20.00
2023-03-05T09:16:55.641Z,19.80
2023-03-05T09:19:12.891Z,18.80
2023-03-05T09:21:24.971Z,17.30
2023-03-05T09:23:36.925Z,24.60
2023-03-05T09:25:49.674Z,141.70
2023-03-05T09:28:02.085Z,156.10
2023-03-05T09:30:19.329Z,101.90
2023-03-05T09:32:31.831Z,57.70
2023-03-05T09:34:43.885Z,43.90
2023-03-05T09:36:55.791Z,24.60
2023-03-05T09:39:07.876Z,23.90
2023-03-05T09:42:02.936Z,19.60
2023-03-05T09:44:38.018Z,18.60
2023-03-05T09:47:18.680Z,16.50
2023-03-05T09:49:51.854Z,18.70
2023-03-05T09:52:15.458Z,17.10
2023-03-05T09:54:39.927Z,15.20
2023-03-05T09:56:58.840Z,18.70
2023-03-05T09:59:41.564Z,17.80
2023-03-05T10:01:56.359Z,19.10
2023-03-05T10:04:14.358Z,23.60
2023-03-05T10:06:31.716Z,22.80
2023-03-05T10:09:29.592Z,15.00
2023-03-05T10:11:57.056Z,19.90
2023-03-05T10:14:32.182Z,22.80
2023-03-05T10:17:00.048Z,30.90
2023-03-05T10:20:04.485Z,36.10
2023-03-05T10:22:33.470Z,17.60
2023-03-05T10:25:04.713Z,20.00
2023-03-05T10:27:57.058Z,17.50
2023-03-05T10:30:31.576Z,16.80
2023-03-05T10:32:55.255Z,27.40
2023-03-05T10:35:40.976Z,34.00
2023-03-05T10:38:21.597Z,38.40
2023-03-05T10:40:42.828Z,17.60
2023-03-05T10:43:19.592Z,19.90
2023-03-05T10:45:41.141Z,44.60
2023-03-05T10:48:02.617Z,47.70
2023-03-05T10:50:27.309Z,110.00
2023-03-05T10:52:46.781Z,80.90
2023-03-05T10:55:16.016Z,50.00
2023-03-05T10:57:31.985Z,63.10
2023-03-05T11:00:35.195Z,37.30
2023-03-05T11:03:00.878Z,30.60
2023-03-05T11:05:51.168Z,22.90
2023-03-05T11:08:24.473Z,32.40
2023-03-05T11:10:36.467Z,37.50
2023-03-05T11:12:49.272Z,49.00
2023-03-05T11:15:32.707Z,29.30
2023-03-05T11:18:39.271Z,35.90
2023-03-05T11:21:09.191Z,38.60
2023-03-05T11:23:24.574Z,31.60
2023-03-05T11:25:56.545Z,36.90
2023-03-05T11:28:32.204Z,69.00
2023-03-05T11:31:04.384Z,178.70
2023-03-05T11:33:22.019Z,129.00
2023-03-05T11:35:38.611Z,55.60
2023-03-05T11:38:01.735Z,29.10
2023-03-05T11:40:24.295Z,19.40
2023-03-05T11:42:42.216Z,25.70
2023-03-05T11:44:57.681Z,36.40
2023-03-05T11:47:24.178Z,26.20
2023-03-05T11:49:49.217Z,28.90
2023-03-05T11:52:28.348Z,26.30
2023-03-05T11:55:08.845Z,19.10
2023-03-05T11:57:24.727Z,14.50
2023-03-05T11:59:41.435Z,13.10
2023-03-05T12:01:57.798Z,15.30
2023-03-05T12:04:10.092Z,18.10
2023-03-05T12:06:41.529Z,18.30
2023-03-05T12:08:57.674Z,16.50
2023-03-05T12:11:29.665Z,19.60
2023-03-05T12:13:49.577Z,17.60
2023-03-05T12:16:29.763Z,20.10
2023-03-05T12:18:44.056Z,18.10
2023-03-05T12:21:16.373Z,16.70
2023-03-05T12:23:55.544Z,15.70
2023-03-05T12:26:09.205Z,14.80
2023-03-05T12:28:35.115Z,19.40
2023-03-05T12:30:48.827Z,22.70
2023-03-05T12:33:38.389Z,26.70
2023-03-05T12:35:50.473Z,37.00
2023-03-05T12:38:26.413Z,36.10
2023-03-05T12:40:40.288Z,32.80
2023-03-05T12:42:56.331Z,24.60
2023-03-05T12:45:19.947Z,34.80
2023-03-05T12:47:33.368Z,44.00
2023-03-05T12:49:48.168Z,28.20
2023-03-05T12:52:05.216Z,26.60
2023-03-05T12:54:32.138Z,27.30
2023-03-05T12:56:46.990Z,30.80
2023-03-05T12:59:02.120Z,41.40
2023-03-05T13:01:30.267Z,37.20
2023-03-05T13:03:56.994Z,39.90
2023-03-05T13:06:24.974Z,32.70
2023-03-05T13:08:38.092Z,29.00
2023-03-05T13:10:59.020Z,27.30
2023-03-05T13:13:20.712Z,26.30
2023-03-05T13:15:37.667Z,17.70
2023-03-05T13:17:57.955Z,19.50
2023-03-05T13:20:41.149Z,22.40
2023-03-05T13:23:18.774Z,18.90
2023-03-05T13:25:32.202Z,19.80
2023-03-05T13:27:45.505Z,17.60
2023-03-05T13:30:00.142Z,44.90
2023-03-05T13:32:34.627Z,29.40
2023-03-05T13:34:48.223Z,31.40
2023-03-05T13:37:16.689Z,28.40
2023-03-05T13:42:06.275Z,27.80
2023-03-05T13:44:37.890Z,21.20
2023-03-05T13:47:55.188Z,18.40
2023-03-05T13:50:09.876Z,15.40
2023-03-05T13:52:31.192Z,35.10
2023-03-05T13:54:43.315Z,44.60
2023-03-05T13:57:01.289Z,27.00
2023-03-05T13:59:19.842Z,19.70
2023-03-05T14:01:43.882Z,17.50
2023-03-05T14:04:05.598Z,16.30
2023-03-05T14:06:21.085Z,12.40
2023-03-05T14:08:33.410Z,19.90
2023-03-05T14:10:46.907Z,21.40
2023-03-05T14:13:01.666Z,27.80
2023-03-05T14:15:25.899Z,27.20
2023-03-05T14:17:43.589Z,28.40
2023-03-05T14:20:14.804Z,24.70
2023-03-05T14:22:32.594Z,24.70
2023-03-05T14:24:52.641Z,26.20
2023-03-05T14:27:13.478Z,33.70
2023-03-05T14:29:29.325Z,33.30
2023-03-05T14:32:07.210Z,26.10
2023-03-05T14:34:35.402Z,19.70
2023-03-05T14:36:50.679Z,21.10
2023-03-05T14:39:02.878Z,16.80
2023-03-05T14:41:24.910Z,25.50
2023-03-05T14:43:37.976Z,29.20
2023-03-05T14:45:50.041Z,33.50
2023-03-05T14:48:05.716Z,26.80
2023-03-05T14:50:27.376Z,31.10
2023-03-05T14:52:39.113Z,22.90
2023-03-05T14:54:52.851Z,24.40
2023-03-05T14:57:05.777Z,26.70
2023-03-05T14:59:21.449Z,24.90
2023-03-05T15:01:33.352Z,24.40
2023-03-05T15:03:45.336Z,24.70
2023-03-05T15:05:59.890Z,19.30
2023-03-05T15:08:20.403Z,17.00
2023-03-05T15:10:32.311Z,17.60
2023-03-05T15:12:44.888Z,18.80
2023-03-05T15:14:57.105Z,18.20
2023-03-05T15:17:18.807Z,17.00
2023-03-05T15:19:30.716Z,16.00
2023-03-05T15:21:42.538Z,16.60
2023-03-05T15:23:54.480Z,17.00
2023-03-05T15:26:08.827Z,16.20
2023-03-05T15:28:20.926Z,17.20
2023-03-05T15:30:38.517Z,20.70
2023-03-05T15:32:52.801Z,26.50
2023-03-05T15:35:05.204Z,21.20
2023-03-05T15:37:19.043Z,25.80
2023-03-05T15:39:31.362Z,31.20
2023-03-05T15:41:43.856Z,35.00
2023-03-05T15:43:55.818Z,34.90
2023-03-05T15:46:08.472Z,30.20
2023-03-05T15:48:23.736Z,27.40
2023-03-05T15:50:36.333Z,21.50
2023-03-05T15:52:51.402Z,19.20
2023-03-05T15:55:04.540Z,19.30
2023-03-05T15:57:17.264Z,19.70
2023-03-05T15:59:29.027Z,18.20
2023-03-05T16:01:46.891Z,23.90
2023-03-05T16:03:59.077Z,24.00
2023-03-05T16:06:13.406Z,24.50
2023-03-05T16:08:25.231Z,28.80
2023-03-05T16:10:39.753Z,25.90
2023-03-05T16:12:57.789Z,23.70
2023-03-05T16:15:11.957Z,26.00
2023-03-05T16:17:25.054Z,31.10
2023-03-05T16:19:42.225Z,33.10
2023-03-05T16:21:54.582Z,24.20
2023-03-05T16:24:07.073Z,52.00
2023-03-05T16:26:19.045Z,50.40
2023-03-05T16:28:30.896Z,56.00
2023-03-05T16:30:43.028Z,61.10
2023-03-05T16:32:54.756Z,51.80
2023-03-05T16:35:06.858Z,44.80
2023-03-05T16:37:21.409Z,54.00
2023-03-05T16:39:34.222Z,54.10
2023-03-05T16:41:48.371Z,34.40
2023-03-05T16:44:00.258Z,48.60
2023-03-05T16:46:14.805Z,59.90
2023-03-05T16:48:29.165Z,64.50
2023-03-05T16:50:40.753Z,38.00
2023-03-05T16:52:52.745Z,32.70
2023-03-05T16:55:06.472Z,118.80
2023-03-05T16:57:18.244Z,88.80
2023-03-05T16:59:30.468Z,120.70
2023-03-05T17:01:42.772Z,156.30
2023-03-05T17:03:57.882Z,347.50
2023-03-05T17:06:18.578Z,174.50
2023-03-05T17:08:30.750Z,76.40
2023-03-05T17:10:43.958Z,72.00
2023-03-05T17:12:56.873Z,254.50
2023-03-05T17:15:09.584Z,248.10
2023-03-05T17:17:21.275Z,158.00
2023-03-05T17:19:33.135Z,149.20
2023-03-05T17:21:45.570Z,173.80
2023-03-05T17:23:57.668Z,278.90
2023-03-05T17:26:16.680Z,187.10
2023-03-05T17:28:28.937Z,90.40
2023-03-05T17:30:41.083Z,58.60
2023-03-05T17:32:54.140Z,61.30
2023-03-05T17:35:07.903Z,99.90
2023-03-05T17:37:19.669Z,129.70
2023-03-05T17:39:31.669Z,80.30
2023-03-05T17:41:43.557Z,51.80
2023-03-05T17:43:55.348Z,51.80
2023-03-05T17:46:07.492Z,47.20
2023-03-05T17:48:19.437Z,39.50
2023-03-05T17:50:31.536Z,40.40
2023-03-05T17:52:43.629Z,37.90
2023-03-05T17:54:56.837Z,39.10
2023-03-05T17:57:09.670Z,36.60
2023-03-05T17:59:22.791Z,37.50
2023-03-05T18:01:35.136Z,34.20
2023-03-05T18:03:47.315Z,35.40
2023-03-05T18:06:00.008Z,34.10
2023-03-05T18:08:13.026Z,35.30
2023-03-05T18:10:28.706Z,34.10
2023-03-05T18:12:41.761Z,34.60
2023-03-05T18:14:54.859Z,38.60
2023-03-05T18:17:06.838Z,40.70
2023-03-05T18:19:19.655Z,57.70
2023-03-05T18:21:33.183Z,67.90
2023-03-05T18:23:47.021Z,110.30
2023-03-05T18:25:58.922Z,141.20
2023-03-05T18:28:13.690Z,162.60
2023-03-05T18:30:27.789Z,181.90
2023-03-05T18:32:40.657Z,181.30
2023-03-05T18:34:52.334Z,151.50
2023-03-05T18:37:04.930Z,157.50
2023-03-05T18:39:19.337Z,158.90
2023-03-05T18:41:34.578Z,150.50
2023-03-05T18:43:52.362Z,145.60
2023-03-05T18:46:09.473Z,123.90
2023-03-05T18:48:24.391Z,120.10
2023-03-05T18:50:38.134Z,103.20
2023-03-05T18:52:59.266Z,98.30
2023-03-05T18:55:23.294Z,94.10
2023-03-05T18:57:36.402Z,92.50
2023-03-05T18:59:49.107Z,85.10
2023-03-05T19:02:01.206Z,88.50
2023-03-05T19:04:13.206Z,72.10
2023-03-05T19:06:24.856Z,70.00
2023-03-05T19:08:36.790Z,65.40
2023-03-05T19:10:48.674Z,62.50
2023-03-05T19:13:40.200Z,53.00
2023-03-05T19:15:52.852Z,55.10
2023-03-05T19:18:05.118Z,62.60
2023-03-05T19:20:18.385Z,147.90
2023-03-05T19:22:32.530Z,94.90
2023-03-05T19:24:44.493Z,96.40
2023-03-05T19:27:00.358Z,121.00
2023-03-05T19:29:12.866Z,146.80
2023-03-05T19:31:25.837Z,116.00
2023-03-05T19:33:38.293Z,122.20
2023-03-05T19:35:50.524Z,126.20
2023-03-05T19:38:02.692Z,136.40
2023-03-05T19:40:15.805Z,115.90
2023-03-05T19:42:32.619Z,85.20
2023-03-05T19:44:47.021Z,83.80
2023-03-05T19:47:02.129Z,84.70
2023-03-05T19:49:16.811Z,74.90
2023-03-05T19:51:29.397Z,89.90
2023-03-05T19:53:48.593Z,93.10
2023-03-05T19:56:04.990Z,80.60
2023-03-05T19:58:21.600Z,83.00
2023-03-05T20:00:34.487Z,88.40
2023-03-05T20:02:48.986Z,100.10
2023-03-05T20:05:06.366Z,102.80
2023-03-05T20:07:19.300Z,106.20
2023-03-05T20:09:35.726Z,144.90
2023-03-05T20:11:49.510Z,169.00
2023-03-05T20:14:03.375Z,168.40
2023-03-05T20:16:22.067Z,129.40
2023-03-05T20:18:36.731Z,117.40
2023-03-05T20:20:55.041Z,99.90
2023-03-05T20:23:08.303Z,95.30
2023-03-05T20:25:25.918Z,75.20
2023-03-05T20:27:39.885Z,64.40
2023-03-05T20:29:51.983Z,64.10
2023-03-05T20:32:04.827Z,68.00
2023-03-05T20:34:20.143Z,71.00
2023-03-05T20:36:34.730Z,66.40
2023-03-05T20:38:46.721Z,66.60
2023-03-05T20:41:00.051Z,72.40
2023-03-05T20:43:12.041Z,72.00
2023-03-05T20:45:23.832Z,64.80
2023-03-05T20:50:19.569Z,48.00
2023-03-05T20:52:38.255Z,32.60
2023-03-05T20:54:50.378Z,29.70
2023-03-05T20:57:02.309Z,29.00
2023-03-05T20:59:14.519Z,29.10
2023-03-05T21:01:28.276Z,135.90
2023-03-05T21:03:41.266Z,174.20
2023-03-05T21:05:56.648Z,222.80
2023-03-05T21:08:08.636Z,221.00
2023-03-05T21:10:21.043Z,161.00
2023-03-05T21:12:33.798Z,111.90
2023-03-05T21:14:46.005Z,67.70
2023-03-05T21:16:57.845Z,55.30
2023-03-05T21:19:09.837Z,51.70
2023-03-05T21:21:21.524Z,43.80
2023-03-05T21:23:34.133Z,55.50
2023-03-05T21:25:47.368Z,50.60
2023-03-05T21:28:02.957Z,56.60
2023-03-05T21:30:14.835Z,47.70
2023-03-05T21:32:26.769Z,50.50
2023-03-05T21:34:38.776Z,49.10
2023-03-05T21:36:50.316Z,56.30
2023-03-05T21:39:01.604Z,56.90
2023-03-05T21:41:14.054Z,61.20
2023-03-05T21:43:26.970Z,70.70
2023-03-05T21:45:40.078Z,56.60
2023-03-05T21:47:52.910Z,52.30
2023-03-05T21:50:06.220Z,55.50
2023-03-05T21:52:17.961Z,54.70
2023-03-05T21:54:29.736Z,61.70
2023-03-05T21:56:41.527Z,62.90
2023-03-05T21:58:54.032Z,64.80
2023-03-05T22:01:06.272Z,52.90
2023-03-05T22:03:18.122Z,50.20
2023-03-05T22:05:29.910Z,53.80
2023-03-05T22:07:42.735Z,52.90
2023-03-05T22:09:56.661Z,51.60
2023-03-05T22:12:33.645Z,50.10
2023-03-05T22:14:48.405Z,51.00
2023-03-05T22:17:02.278Z,46.80
2023-03-05T22:19:14.208Z,56.30
2023-03-05T22:21:28.183Z,50.60
2023-03-05T22:23:39.964Z,52.90
2023-03-05T22:25:59.851Z,54.00
2023-03-05T22:28:13.815Z,57.50
2023-03-05T22:30:26.100Z,52.00
2023-03-05T22:32:39.666Z,51.70
2023-03-05T22:34:56.013Z,49.40
2023-03-05T22:37:08.212Z,53.90
2023-03-05T22:39:20.005Z,54.50
2023-03-05T22:41:31.894Z,58.60
2023-03-05T22:43:44.095Z,57.20
2023-03-05T22:45:55.982Z,52.90
2023-03-05T22:48:10.134Z,52.20
2023-03-05T22:50:22.153Z,55.60
2023-03-05T22:52:34.018Z,54.90
2023-03-05T22:54:45.603Z,56.40
2023-03-05T22:56:57.393Z,63.70
2023-03-05T22:59:09.284Z,50.50
2023-03-05T23:01:24.153Z,56.40
2023-03-05T23:03:36.356Z,53.00
2023-03-05T23:05:48.353Z,54.70
2023-03-05T23:07:59.946Z,60.30
2023-03-05T23:10:13.666Z,58.30
2023-03-05T23:12:28.549Z,49.60
2023-03-05T23:14:40.532Z,50.00
2023-03-05T23:16:52.525Z,53.30
2023-03-05T23:19:04.211Z,50.40
2023-03-05T23:21:15.909Z,54.70
2023-03-05T23:23:28.101Z,46.90
2023-03-05T23:25:39.795Z,52.80
2023-03-05T23:27:51.782Z,50.70
2023-03-05T23:30:17.525Z,54.60
2023-03-05T23:32:29.644Z,55.90
2023-03-05T23:34:41.899Z,52.60
2023-03-05T23:36:53.686Z,48.60
2023-03-05T23:39:05.487Z,44.00
2023-03-05T23:41:17.545Z,43.90
2023-03-05T23:43:30.378Z,44.80
2023-03-05T23:45:43.862Z,46.10
2023-03-05T23:47:56.192Z,55.80
2023-03-05T23:50:13.078Z,47.60
2023-03-05T23:52:25.015Z,53.00
2023-03-05T23:54:37.319Z,50.50
2023-03-05T23:56:49.114Z,47.30
2023-03-05T23:59:01.725Z,54.40
